createdAt,value
2023-05-11T00:06:55.192Z,17.52
2023-05-11T00:16:57.203Z,18.40
2023-05-11T00:26:59.309Z,18.77
2023-05-11T00:37:01.323Z,20.63
2023-05-11T00:47:03.873Z,21.20
2023-05-11T00:57:06.150Z,21.60
2023-05-11T01:07:19.656Z,20.83
2023-05-11T01:17:36.059Z,19.73
2023-05-11T01:28:10.527Z,19.53
2023-05-11T01:38:14.628Z,21.50
2023-05-11T01:48:19.211Z,20.13
2023-05-11T01:58:21.752Z,19.93
2023-05-11T02:08:25.646Z,18.38
2023-05-11T02:18:28.457Z,21.60
2023-05-11T02:28:34.800Z,20.80
2023-05-11T02:38:39.011Z,20.23
2023-05-11T02:48:47.351Z,23.30
2023-05-11T02:58:51.421Z,23.30
2023-05-11T03:08:57.835Z,23.60
2023-05-11T03:19:02.134Z,22.83
2023-05-11T03:29:07.419Z,21.70
2023-05-11T03:39:11.538Z,22.40
2023-05-11T03:49:15.611Z,22.23
2023-05-11T03:59:18.180Z,21.20
2023-05-11T04:09:20.293Z,23.90
2023-05-11T04:19:22.491Z,23.30
2023-05-11T04:29:25.077Z,24.52
2023-05-11T04:39:27.086Z,23.83
2023-05-11T04:49:29.304Z,23.73
2023-05-11T04:59:31.509Z,25.40
2023-05-11T05:09:33.668Z,27.07
2023-05-11T05:19:35.937Z,25.13
2023-05-11T05:29:38.254Z,26.70
2023-05-11T05:39:40.994Z,28.05
2023-05-11T05:49:43.172Z,28.77
2023-05-11T05:59:45.349Z,28.83
2023-05-11T06:09:48.275Z,29.73
2023-05-11T06:19:50.445Z,29.13
2023-05-11T06:29:57.642Z,30.92
2023-05-11T06:40:03.184Z,28.73
2023-05-11T06:50:05.922Z,28.58
2023-05-11T07:00:08.867Z,26.30
2023-05-11T07:10:10.960Z,25.63
2023-05-11T07:20:13.354Z,24.63
2023-05-11T07:30:17.345Z,24.57
2023-05-11T07:40:20.965Z,24.35
2023-05-11T07:50:24.683Z,25.53
2023-05-11T08:00:27.565Z,23.73
2023-05-11T08:10:29.629Z,22.17
2023-05-11T08:20:31.648Z,22.42
2023-05-11T08:30:33.825Z,22.45
2023-05-11T08:40:36.265Z,21.23
2023-05-11T08:50:38.399Z,18.77
2023-05-11T09:00:45.321Z,19.92
2023-05-11T09:11:06.517Z,20.80
2023-05-11T09:21:08.748Z,17.33
2023-05-11T09:31:10.782Z,18.25
2023-05-11T09:41:19.954Z,15.60
2023-05-11T09:51:32.358Z,11.97
2023-05-11T10:01:34.923Z,12.85
2023-05-11T10:11:38.743Z,13.43
2023-05-11T10:21:41.120Z,11.18
2023-05-11T10:31:44.439Z,12.75
2023-05-11T10:41:55.705Z,10.38
2023-05-11T10:52:09.479Z,9.10
2023-05-11T11:02:11.814Z,9.38
2023-05-11T11:12:14.326Z,8.30
2023-05-11T11:22:34.987Z,8.73
2023-05-11T11:32:37.385Z,8.82
2023-05-11T11:42:41.961Z,8.88
2023-05-11T11:52:44.072Z,7.75
2023-05-11T12:02:46.320Z,9.82
2023-05-11T12:12:50.558Z,8.32
2023-05-11T12:22:53.560Z,8.30
2023-05-11T12:32:57.491Z,10.00
2023-05-11T12:43:00.587Z,11.25
2023-05-11T12:53:19.062Z,9.68
2023-05-11T13:03:25.899Z,9.20
2023-05-11T13:13:28.756Z,10.73
2023-05-11T13:23:31.847Z,10.93
2023-05-11T13:33:34.543Z,11.07
2023-05-11T13:43:36.622Z,8.52
2023-05-11T13:53:38.675Z,8.93
2023-05-11T14:03:40.817Z,8.88
2023-05-11T14:13:42.936Z,8.23
2023-05-11T14:23:56.834Z,9.80
2023-05-11T14:34:06.558Z,9.45
2023-05-11T14:44:09.923Z,9.65
2023-05-11T14:54:11.972Z,9.17
2023-05-11T15:04:15.584Z,10.10
2023-05-11T15:14:17.840Z,8.63
2023-05-11T15:24:19.996Z,5.87
2023-05-11T15:34:22.089Z,6.90
2023-05-11T15:44:24.349Z,6.80
2023-05-11T15:54:26.909Z,8.23
2023-05-11T16:04:28.950Z,7.45
2023-05-11T16:14:31.308Z,7.55
2023-05-11T16:24:34.609Z,6.13
2023-05-11T16:34:36.988Z,6.10
2023-05-11T16:44:39.167Z,8.73
2023-05-11T16:54:41.374Z,4.72
2023-05-11T17:04:43.498Z,4.50
2023-05-11T17:14:45.533Z,1.20
2023-05-11T17:24:47.623Z,1.80
2023-05-11T17:34:49.708Z,1.90
2023-05-11T17:44:51.898Z,1.75
2023-05-11T17:54:54.101Z,3.07
2023-05-11T18:04:56.314Z,2.10
2023-05-11T18:14:59.737Z,3.58
2023-05-11T18:25:02.366Z,4.13
2023-05-11T18:35:04.734Z,4.63
2023-05-11T18:45:07.723Z,5.43
2023-05-11T18:55:10.215Z,6.17
2023-05-11T19:05:12.770Z,6.80
2023-05-11T19:15:15.290Z,7.53
2023-05-11T19:25:17.610Z,7.25
2023-05-11T19:35:20.315Z,9.38
2023-05-11T19:45:22.341Z,9.38
2023-05-11T19:55:24.380Z,9.82
2023-05-11T20:05:26.809Z,10.70
2023-05-11T20:15:28.832Z,11.40
2023-05-11T20:25:30.907Z,11.05
2023-05-11T20:35:33.860Z,12.32
2023-05-11T20:45:36.166Z,13.85
2023-05-11T20:55:38.221Z,13.80
2023-05-11T21:05:40.586Z,13.03
2023-05-11T21:15:42.675Z,13.13
2023-05-11T21:25:44.774Z,12.27
2023-05-11T21:35:47.639Z,13.32
2023-05-11T21:45:50.302Z,13.70
2023-05-11T21:55:52.376Z,13.23
2023-05-11T22:05:54.405Z,13.63
2023-05-11T22:15:56.536Z,13.73
2023-05-11T22:25:58.687Z,11.20
2023-05-11T22:36:00.842Z,12.43
2023-05-11T22:46:04.038Z,8.10
2023-05-11T22:56:07.298Z,9.27
2023-05-11T23:06:09.496Z,14.13
2023-05-11T23:16:11.840Z,16.10
2023-05-11T23:26:13.913Z,14.80
2023-05-11T23:36:16.226Z,16.10
2023-05-11T23:46:18.298Z,17.33
2023-05-11T23:56:20.350Z,19.23
